Decoded Metar for RCMQ (CHINGCHUAKANG in TAIWAN) (IATA:N/A) | Meteo·Mobile Aviation Weather
aviador You're here:

RCMQ Decoded Metar

CHINGCHUAKANG in TAIWAN
Report Time2018-10-19 08:30:00
UTC Time2018-10-19 09:10:18
Flight Rules vfr VFR
Wind020° at 16 kt
W.Decomp.*RWY 36: 14.7 kt HW 6.3 kt RCW
W.Rank020° ranks 2
Current wind is above 020° avg. (9.8)
Visibility9999 m
Phenomena:N/A
Clouds:Few 012 Hf
Scattered 060 Hf
Expected CloudBase > 2,400 ft AGL from Temp-Dew spread
CeilingNone
Temp23°C (ISA +8)
Dew Point17°C (69% RH)
AAT19.6°C
QNH1016 hPa
Density Alt1,106 ft
Elevation16 ft
Report Wrong Elevation
Raw Report
RCMQ 190830Z 02016KT 9999 FEW012 SCT060 23/17 Q1016 NOSIG RMK
A3001=

Extra information for RCMQ:More info

Metar Taf Metar & Taf Last 4 Metars F.Rules Stats Wind Profile Meteogram Temp Stats Airport Information Weather charts Add Link Nearby VenuesMetar ALERT Operation Metar Decoded Social comments